Time;durP1;ratioP1;P1;durP2;ratioP2;P2;SDS_P1;SDS_P2;PMS_P1;PMS_P2;Temp;Humidity;BMP_temperature;BMP_pressure;BME280_temperature;BME280_humidity;BME280_pressure;Samples;Min_cycle;Max_cycle;Signal;HPM_P1;HPM_P2
2022/08/20 00:01:26;;;;;;;13.65;10.45;;;19.10;99.90;;;;;;4939480;28;90923;-33
2022/08/20 00:03:52;;;;;;;14.48;10.02;;;19.00;99.90;;;;;;4939122;28;89506;-33
2022/08/20 00:06:20;;;;;;;10.73;9.70;;;19.00;99.90;;;;;;4939411;28;90560;-31
2022/08/20 00:08:47;;;;;;;13.05;11.15;;;19.00;99.90;;;;;;4940285;28;89773;-34
2022/08/20 00:11:17;;;;;;;10.77;9.07;;;19.00;99.90;;;;;;4938823;28;90120;-32
2022/08/20 00:13:46;;;;;;;11.73;9.68;;;18.90;99.90;;;;;;4939609;28;90347;-33
2022/08/20 00:16:13;;;;;;;11.43;9.73;;;18.90;99.90;;;;;;4937779;28;91481;-34
2022/08/20 00:18:40;;;;;;;12.17;11.00;;;18.90;99.90;;;;;;4939493;28;89662;-32
2022/08/20 00:21:08;;;;;;;11.98;10.68;;;18.90;99.90;;;;;;4939535;28;89563;-34
2022/08/20 00:23:38;;;;;;;;;;;18.80;99.90;;;;;;4938894;28;89882;-32
2022/08/20 00:26:04;;;;;;;14.38;11.55;;;18.80;99.90;;;;;;4979090;23;90322;-34
2022/08/20 00:28:30;;;;;;;11.60;10.32;;;18.80;99.90;;;;;;4937904;28;90199;-35
2022/08/20 00:30:55;;;;;;;10.27;9.20;;;18.80;99.90;;;;;;4939173;28;89349;-34
2022/08/20 00:33:22;;;;;;;13.15;11.77;;;18.70;99.90;;;;;;4939772;28;89215;-32
2022/08/20 00:35:53;;;;;;;13.77;11.73;;;18.70;99.90;;;;;;4938147;28;90384;-33
2022/08/20 00:38:19;;;;;;;11.60;9.63;;;18.80;99.90;;;;;;4937997;28;89747;-31
2022/08/20 00:40:52;;;;;;;14.27;11.93;;;18.80;99.90;;;;;;4939004;28;89610;-33
2022/08/20 00:43:49;;;;;;;14.63;12.88;;;18.70;99.90;;;;;;4938818;28;88796;-33
2022/08/20 00:46:19;;;;;;;15.98;12.10;;;18.80;99.90;;;;;;4932812;28;90180;-32
2022/08/20 00:48:48;;;;;;;14.38;12.88;;;18.70;99.90;;;;;;4929583;28;90322;-34
2022/08/20 00:51:32;;;;;;;12.68;11.40;;;18.70;99.90;;;;;;4937815;28;91113;-30
2022/08/20 00:54:12;;;;;;;15.98;10.40;;;18.70;99.90;;;;;;4938921;28;89651;-35
2022/08/20 00:56:39;;;;;;;13.57;12.13;;;18.70;99.90;;;;;;4941385;28;90529;-34
2022/08/20 00:59:10;;;;;;;13.70;10.50;;;18.70;99.90;;;;;;4942050;28;88952;-32
2022/08/20 01:01:37;;;;;;;11.90;10.60;;;18.70;99.90;;;;;;4941365;28;89447;-33
2022/08/20 01:04:04;;;;;;;14.15;12.30;;;18.60;99.90;;;;;;4928276;28;89252;-34
2022/08/20 01:06:30;;;;;;;12.73;10.68;;;18.60;99.90;;;;;;4925299;28;90149;-33
2022/08/20 01:08:57;;;;;;;11.77;10.48;;;18.60;99.90;;;;;;4928677;28;90277;-35
2022/08/20 01:11:32;;;;;;;17.35;11.57;;;18.60;99.90;;;;;;4936832;28;89659;-32
2022/08/20 01:13:59;;;;;;;11.25;10.10;;;18.60;99.90;;;;;;4933062;28;89459;-35
2022/08/20 01:16:29;;;;;;;17.83;10.70;;;18.60;99.90;;;;;;4941655;28;89358;-31
2022/08/20 01:18:56;;;;;;;15.55;11.43;;;18.60;99.90;;;;;;4941547;28;90098;-34
2022/08/20 01:21:25;;;;;;;12.50;10.75;;;18.60;99.90;;;;;;4927945;28;89605;-33
2022/08/20 01:24:15;;;;;;;10.52;9.52;;;18.60;99.90;;;;;;4942054;28;88888;-32
2022/08/20 01:26:44;;;;;;;17.27;12.88;;;18.60;99.90;;;;;;4941716;28;90608;-32
2022/08/20 01:29:16;;;;;;;12.90;10.82;;;18.60;99.90;;;;;;4939121;28;94750;-33
2022/08/20 01:31:43;;;;;;;14.65;10.13;;;18.60;99.90;;;;;;4939414;28;94128;-35
2022/08/20 01:34:16;;;;;;;13.07;11.15;;;18.60;99.90;;;;;;4939293;28;93336;-31
2022/08/20 01:36:50;;;;;;;14.60;11.77;;;18.50;99.90;;;;;;4936513;28;94446;-32
2022/08/20 01:39:21;;;;;;;11.65;10.43;;;18.50;99.90;;;;;;4927302;28;96788;-33
2022/08/20 01:41:59;;;;;;;12.77;11.43;;;18.50;99.90;;;;;;4937806;28;95712;-31
2022/08/20 01:44:25;;;;;;;16.95;10.32;;;18.50;99.90;;;;;;4938876;28;94614;-33
2022/08/20 01:46:54;;;;;;;11.43;10.10;;;18.50;99.90;;;;;;4938735;28;93999;-31
2022/08/20 01:49:31;;;;;;;12.38;10.25;;;18.40;99.90;;;;;;4938227;28;95302;-35
2022/08/20 01:52:01;;;;;;;11.27;9.88;;;18.40;99.90;;;;;;4938824;28;94734;-34
2022/08/20 01:54:27;;;;;;;13.82;11.77;;;18.40;99.90;;;;;;4939626;28;93217;-31
2022/08/20 01:57:03;;;;;;;12.85;11.63;;;18.40;99.90;;;;;;4939309;28;93708;-33
2022/08/20 01:59:29;;;;;;;13.73;12.32;;;18.40;99.90;;;;;;4937745;28;94642;-32
2022/08/20 02:01:56;;;;;;;20.88;11.80;;;18.30;99.90;;;;;;4938652;28;94977;-34
2022/08/20 02:04:22;;;;;;;10.97;9.90;;;18.30;99.90;;;;;;4930093;28;94252;-32
2022/08/20 02:06:54;;;;;;;15.27;11.35;;;18.30;99.90;;;;;;4931005;28;93374;-33
2022/08/20 02:09:21;;;;;;;12.60;10.35;;;18.30;99.90;;;;;;4938031;28;94182;-34
2022/08/20 02:11:47;;;;;;;15.10;11.18;;;18.30;99.90;;;;;;4928139;28;94650;-34
2022/08/20 02:14:13;;;;;;;14.52;10.20;;;18.30;99.90;;;;;;4934317;28;93339;-32
2022/08/20 02:16:42;;;;;;;11.93;10.63;;;18.30;99.90;;;;;;4937819;28;93203;-32
2022/08/20 02:19:21;;;;;;;11.82;10.55;;;18.30;99.90;;;;;;4937977;28;94898;-34
2022/08/20 02:21:51;;;;;;;14.80;10.50;;;18.30;99.90;;;;;;4938587;28;95888;-33
2022/08/20 02:24:19;;;;;;;12.50;11.07;;;18.30;99.90;;;;;;4937473;28;94924;-32
2022/08/20 02:26:44;;;;;;;12.70;11.40;;;18.20;99.90;;;;;;4937220;28;93325;-31
2022/08/20 02:29:12;;;;;;;17.98;12.10;;;18.20;99.90;;;;;;4937877;28;95575;-33
2022/08/20 02:31:39;;;;;;;13.85;10.10;;;18.20;99.90;;;;;;4938529;28;96805;-33
2022/08/20 02:34:08;;;;;;;17.70;10.02;;;18.20;99.90;;;;;;4937855;28;92535;-32
2022/08/20 02:36:36;;;;;;;13.88;10.35;;;18.20;99.90;;;;;;4937276;28;93717;-32
2022/08/20 02:39:07;;;;;;;12.75;9.57;;;18.20;99.90;;;;;;4937964;28;94741;-35
2022/08/20 02:41:35;;;;;;;13.43;10.25;;;18.10;99.90;;;;;;4937188;28;94866;-33
2022/08/20 02:44:01;;;;;;;12.25;10.80;;;18.10;99.90;;;;;;4938495;28;92619;-30
2022/08/20 02:46:27;;;;;;;12.00;9.35;;;18.10;99.90;;;;;;4938325;28;94184;-32
2022/08/20 02:48:54;;;;;;;10.93;9.65;;;18.00;99.90;;;;;;4938446;28;95396;-33
2022/08/20 02:51:19;;;;;;;10.82;9.73;;;18.10;99.90;;;;;;4938344;28;95625;-30
2022/08/20 02:53:45;;;;;;;15.90;10.80;;;18.00;99.90;;;;;;4938064;28;93970;-32
2022/08/20 02:56:12;;;;;;;14.48;9.23;;;18.00;99.90;;;;;;4937710;28;94640;-35
2022/08/20 02:58:39;;;;;;;11.23;9.38;;;18.00;99.90;;;;;;4938673;28;94645;-34
2022/08/20 03:01:07;;;;;;;10.07;8.85;;;18.00;99.90;;;;;;4937968;28;95451;-32
2022/08/20 03:03:33;;;;;;;;;;;18.00;99.90;;;;;;4938530;28;93576;-34
2022/08/20 03:05:59;;;;;;;11.50;9.52;;;17.90;99.90;;;;;;4939644;28;92432;-33
2022/08/20 03:08:27;;;;;;;9.10;8.20;;;17.90;99.90;;;;;;4937743;28;95947;-32
2022/08/20 03:10:53;;;;;;;10.30;9.25;;;17.80;99.90;;;;;;4935865;28;94144;-33
2022/08/20 03:13:19;;;;;;;13.57;11.10;;;17.80;99.90;;;;;;4926842;28;94368;-35
2022/08/20 03:15:52;;;;;;;13.20;9.73;;;17.80;99.90;;;;;;4937776;28;94565;-31
2022/08/20 03:18:19;;;;;;;8.88;8.05;;;17.70;99.90;;;;;;4936970;28;95621;-33
2022/08/20 03:20:46;;;;;;;15.70;10.88;;;17.70;99.90;;;;;;4937746;28;94876;-31
2022/08/20 03:23:12;;;;;;;12.88;9.30;;;17.70;99.90;;;;;;4924227;28;94731;-36
2022/08/20 03:25:38;;;;;;;13.32;10.48;;;17.60;99.90;;;;;;4937053;28;93461;-33
2022/08/20 03:28:04;;;;;;;12.63;9.38;;;17.60;99.90;;;;;;4937525;28;94650;-30
2022/08/20 03:30:30;;;;;;;12.07;9.95;;;17.60;99.90;;;;;;4937985;28;92365;-33
2022/08/20 03:32:56;;;;;;;11.35;10.15;;;17.60;99.90;;;;;;4937945;28;92317;-34
2022/08/20 03:35:25;;;;;;;11.43;8.57;;;17.60;99.90;;;;;;4937381;28;92916;-34
2022/08/20 03:37:51;;;;;;;13.13;8.48;;;17.60;99.90;;;;;;4937513;28;95502;-34
2022/08/20 03:40:36;;;;;;;14.75;10.15;;;17.60;99.90;;;;;;4937143;28;94427;-33
2022/08/20 03:43:03;;;;;;;9.80;8.60;;;17.50;99.90;;;;;;4937180;28;95690;-32
2022/08/20 03:45:29;;;;;;;12.07;9.60;;;17.50;99.90;;;;;;4937103;28;93204;-34
2022/08/20 03:47:55;;;;;;;20.00;9.25;;;17.50;99.90;;;;;;4937413;28;94815;-33
2022/08/20 03:50:24;;;;;;;16.52;8.68;;;17.50;99.90;;;;;;4937220;28;95245;-31
2022/08/20 03:52:51;;;;;;;11.60;8.15;;;17.50;99.90;;;;;;4937557;28;94555;-34
2022/08/20 03:55:16;;;;;;;14.35;9.68;;;17.40;99.90;;;;;;4937152;28;94411;-32
2022/08/20 03:57:48;;;;;;;13.25;9.23;;;17.40;99.90;;;;;;4938070;28;94752;-33
2022/08/20 04:00:18;;;;;;;12.95;9.63;;;17.40;99.90;;;;;;4936897;28;94896;-33
2022/08/20 04:02:43;;;;;;;11.93;8.85;;;17.40;99.90;;;;;;4936529;28;92498;-31
2022/08/20 04:05:09;;;;;;;10.18;8.95;;;17.30;99.90;;;;;;4937421;28;92222;-30
2022/08/20 04:07:36;;;;;;;12.25;8.30;;;17.30;99.90;;;;;;4936105;28;95634;-34
2022/08/20 04:10:08;;;;;;;21.27;9.67;;;17.20;99.90;;;;;;4937084;28;95673;-36
2022/08/20 04:12:39;;;;;;;11.07;8.77;;;17.20;99.90;;;;;;4923839;28;92167;-32
2022/08/20 04:15:09;;;;;;;11.60;8.55;;;17.10;99.90;;;;;;4937617;28;94093;-33
2022/08/20 04:17:36;;;;;;;28.40;9.32;;;17.10;99.90;;;;;;4936563;28;95043;-32
2022/08/20 04:20:05;;;;;;;14.77;9.05;;;17.10;99.90;;;;;;4936434;28;94482;-35
2022/08/20 04:22:31;;;;;;;9.02;8.13;;;17.10;99.90;;;;;;4936910;28;94431;-34
2022/08/20 04:24:56;;;;;;;15.95;8.95;;;17.00;99.90;;;;;;4938214;28;92584;-31
2022/08/20 04:27:22;;;;;;;14.75;8.07;;;17.10;99.90;;;;;;4936354;28;95002;-32
2022/08/20 04:29:47;;;;;;;14.07;9.65;;;17.00;99.90;;;;;;4938486;28;94581;-33
2022/08/20 04:32:13;;;;;;;10.60;8.85;;;17.00;99.90;;;;;;4939915;28;95378;-33
2022/08/20 04:34:39;;;;;;;12.60;8.23;;;17.00;99.90;;;;;;4940425;28;93293;-32
2022/08/20 04:37:05;;;;;;;11.73;8.82;;;16.90;99.90;;;;;;4940591;28;94540;-32
2022/08/20 04:39:31;;;;;;;21.77;8.40;;;16.90;99.90;;;;;;4948183;28;95441;-33
2022/08/20 04:41:57;;;;;;;10.57;7.50;;;16.90;99.90;;;;;;4942776;28;93324;-31
2022/08/20 04:44:23;;;;;;;9.48;7.72;;;16.90;99.90;;;;;;4939686;28;94262;-30
2022/08/20 04:46:50;;;;;;;12.70;8.10;;;16.80;99.90;;;;;;4940345;28;94728;-33
2022/08/20 04:49:15;;;;;;;13.23;8.55;;;16.80;99.90;;;;;;4940233;28;94767;-32
2022/08/20 04:51:41;;;;;;;10.48;7.50;;;16.80;99.90;;;;;;4940685;28;93776;-32
2022/08/20 04:54:06;;;;;;;12.20;7.85;;;16.80;99.90;;;;;;4940277;28;93372;-32
2022/08/20 04:56:38;;;;;;;9.35;7.60;;;16.80;99.90;;;;;;4938928;28;95466;-32
2022/08/20 04:59:06;;;;;;;17.42;8.52;;;16.80;99.90;;;;;;4939749;28;95873;-32
2022/08/20 05:01:32;;;;;;;8.93;6.93;;;16.80;99.90;;;;;;4940364;28;93014;-31
2022/08/20 05:03:58;;;;;;;10.23;7.85;;;16.80;99.90;;;;;;4940358;28;94008;-35
2022/08/20 05:06:27;;;;;;;13.32;8.95;;;16.80;99.90;;;;;;4939645;28;95469;-31
2022/08/20 05:08:54;;;;;;;10.45;7.55;;;16.80;99.90;;;;;;4939584;28;94768;-32
2022/08/20 05:11:21;;;;;;;12.30;8.25;;;16.80;99.90;;;;;;4933670;28;94645;-33
2022/08/20 05:13:46;;;;;;;9.65;8.18;;;16.80;99.90;;;;;;4932779;28;93917;-35
2022/08/20 05:16:14;;;;;;;10.55;7.72;;;16.80;99.90;;;;;;4938874;28;95021;-32
2022/08/20 05:18:39;;;;;;;10.40;7.43;;;16.80;99.90;;;;;;4939743;28;95118;-31
2022/08/20 05:21:05;;;;;;;11.55;7.70;;;16.80;99.90;;;;;;4939359;28;95024;-32
2022/08/20 05:23:41;;;;;;;12.00;7.13;;;16.80;99.90;;;;;;4939728;28;92110;-32
2022/08/20 05:26:09;;;;;;;8.48;6.75;;;16.80;99.90;;;;;;4939098;28;94893;-33
2022/08/20 05:28:37;;;;;;;8.20;6.53;;;16.80;99.90;;;;;;4939388;28;95199;-34
2022/08/20 05:31:05;;;;;;;26.13;8.70;;;16.70;99.90;;;;;;4939707;28;92051;-33
2022/08/20 05:33:31;;;;;;;11.35;6.55;;;16.70;99.90;;;;;;4939687;28;93693;-31
2022/08/20 05:35:57;;;;;;;11.82;6.90;;;16.70;99.90;;;;;;4939156;28;94752;-31
2022/08/20 05:38:26;;;;;;;14.60;7.03;;;16.70;99.90;;;;;;4939774;28;94433;-35
2022/08/20 05:40:52;;;;;;;9.75;6.85;;;16.70;99.90;;;;;;4939676;28;92637;-32
2022/08/20 05:43:18;;;;;;;9.15;7.53;;;16.60;99.90;;;;;;4938248;28;94478;-33
2022/08/20 05:45:45;;;;;;;11.48;6.20;;;16.60;99.90;;;;;;4938709;28;95607;-33
2022/08/20 05:48:17;;;;;;;10.43;7.18;;;16.60;99.90;;;;;;4939088;28;97596;-33
2022/08/20 05:50:45;;;;;;;9.88;5.95;;;16.60;99.90;;;;;;4939975;28;92166;-33
2022/08/20 05:53:11;;;;;;;13.82;7.63;;;16.70;99.90;;;;;;4941183;28;94004;-31
2022/08/20 05:55:38;;;;;;;8.20;6.38;;;16.70;99.90;;;;;;4937795;28;94803;-33
2022/08/20 05:58:06;;;;;;;9.38;6.40;;;16.70;99.90;;;;;;4938718;28;94265;-33
2022/08/20 06:00:33;;;;;;;10.68;7.47;;;16.70;99.90;;;;;;4939325;28;93571;-32
2022/08/20 06:05:44;;;;;;;9.68;6.35;;;16.70;99.90;;;;;;4924995;28;95038;-31
2022/08/20 06:08:10;;;;;;;6.50;5.82;;;16.80;99.90;;;;;;4939106;28;94486;-33
2022/08/20 06:10:38;;;;;;;13.25;6.40;;;16.70;99.90;;;;;;4944675;28;94275;-30
2022/08/20 06:13:04;;;;;;;8.63;5.70;;;16.80;99.90;;;;;;4940040;28;92203;-30
2022/08/20 06:15:31;;;;;;;8.60;5.95;;;16.80;99.90;;;;;;4952630;28;95316;-31
2022/08/20 06:17:57;;;;;;;6.22;5.03;;;16.80;99.90;;;;;;4947936;28;93254;-34
2022/08/20 06:20:23;;;;;;;7.50;5.95;;;16.80;99.90;;;;;;4938334;28;92257;-33
2022/08/20 06:22:48;;;;;;;9.63;5.93;;;16.80;99.90;;;;;;4938735;28;94524;-34
2022/08/20 06:25:14;;;;;;;8.75;6.28;;;16.80;99.90;;;;;;4938794;28;94654;-34
2022/08/20 06:27:42;;;;;;;9.02;6.38;;;16.90;99.90;;;;;;4938050;28;94604;-33
2022/08/20 06:30:10;;;;;;;10.57;5.72;;;16.90;99.90;;;;;;4939570;28;92928;-32
2022/08/20 06:32:36;;;;;;;7.03;5.35;;;17.10;99.90;;;;;;4938621;28;93579;-30
2022/08/20 06:35:04;;;;;;;8.80;5.47;;;17.10;99.90;;;;;;4946361;28;95799;-32
2022/08/20 06:37:31;;;;;;;;;;;17.20;99.90;;;;;;4953359;28;95415;-32
2022/08/20 06:40:00;;;;;;;8.27;4.88;;;17.30;99.90;;;;;;4954261;28;92139;-30
2022/08/20 06:42:25;;;;;;;5.22;4.63;;;17.40;99.90;;;;;;4947719;28;92266;-31
2022/08/20 06:44:51;;;;;;;6.65;4.70;;;17.40;99.90;;;;;;4938712;28;94960;-31
2022/08/20 06:47:19;;;;;;;10.35;5.10;;;17.50;99.90;;;;;;4938532;28;94531;-32
2022/08/20 06:49:46;;;;;;;9.52;4.70;;;17.60;99.90;;;;;;4938884;28;94941;-34
2022/08/20 06:52:14;;;;;;;5.47;4.50;;;17.70;99.90;;;;;;4938704;28;92639;-35
2022/08/20 06:54:40;;;;;;;;;;;17.80;99.90;;;;;;4936967;28;94103;-31
2022/08/20 06:57:05;;;;;;;7.53;3.90;;;17.90;99.90;;;;;;4939604;28;94023;-30
2022/08/20 06:59:31;;;;;;;5.63;4.22;;;18.00;99.90;;;;;;4938701;28;93954;-31
2022/08/20 07:01:57;;;;;;;11.88;6.07;;;18.10;99.90;;;;;;4938838;28;94225;-35
2022/08/20 07:04:24;;;;;;;7.65;4.63;;;18.20;99.90;;;;;;4938280;28;93970;-34
2022/08/20 07:06:51;;;;;;;7.43;4.70;;;18.40;99.90;;;;;;4937602;28;96129;-34
2022/08/20 07:09:18;;;;;;;8.07;3.83;;;18.60;99.90;;;;;;4937774;28;95083;-36
2022/08/20 07:11:44;;;;;;;5.27;3.43;;;18.90;99.90;;;;;;4929385;28;92602;-32
2022/08/20 07:14:10;;;;;;;9.40;3.67;;;19.10;99.90;;;;;;4933828;28;94523;-30
2022/08/20 07:16:36;;;;;;;5.00;2.80;;;19.40;99.90;;;;;;4937807;28;94700;-33
2022/08/20 07:19:02;;;;;;;6.53;3.88;;;19.50;99.90;;;;;;4938580;28;93770;-34
2022/08/20 07:21:29;;;;;;;7.60;3.30;;;19.40;99.90;;;;;;4938706;28;94488;-31
2022/08/20 07:23:55;;;;;;;6.88;3.30;;;19.30;99.90;;;;;;4943465;28;95843;-31
2022/08/20 07:26:21;;;;;;;5.72;3.17;;;19.40;99.90;;;;;;4945823;28;95697;-33
2022/08/20 07:28:46;;;;;;;4.60;2.55;;;19.50;99.90;;;;;;4943525;28;92104;-33
2022/08/20 07:33:56;;;;;;;6.72;3.25;;;19.50;99.90;;;;;;4947979;28;93642;-31
2022/08/20 07:36:22;;;;;;;3.80;2.90;;;19.60;99.90;;;;;;4946465;28;94359;-34
2022/08/20 07:38:51;;;;;;;10.93;3.10;;;19.60;99.90;;;;;;4951280;28;92101;-31
2022/08/20 07:41:18;;;;;;;3.35;2.55;;;19.60;99.90;;;;;;4944576;28;92410;-33
2022/08/20 07:43:44;;;;;;;6.68;2.80;;;19.40;99.90;;;;;;4936955;28;93388;-34
2022/08/20 07:46:11;;;;;;;5.25;2.70;;;19.40;99.90;;;;;;4937500;28;94898;-31
2022/08/20 07:48:39;;;;;;;7.47;2.80;;;19.40;99.90;;;;;;4937867;28;95586;-31
2022/08/20 07:51:06;;;;;;;9.82;2.92;;;19.40;99.90;;;;;;4938227;28;93728;-31
2022/08/20 07:53:34;;;;;;;6.07;2.42;;;19.40;99.90;;;;;;4939240;28;95017;-34
2022/08/20 07:56:02;;;;;;;;;;;19.50;99.90;;;;;;4938888;28;94588;-32
2022/08/20 07:58:28;;;;;;;12.32;2.88;;;19.60;99.90;;;;;;4939752;28;94408;-31
2022/08/20 08:00:54;;;;;;;3.17;2.50;;;19.60;99.90;;;;;;4938206;28;94485;-34
2022/08/20 08:03:19;;;;;;;6.38;2.63;;;19.70;99.90;;;;;;4936935;28;94685;-35
2022/08/20 08:05:47;;;;;;;5.20;3.17;;;19.70;99.90;;;;;;4937618;28;94582;-34
2022/08/20 08:08:16;;;;;;;;;;;19.90;99.90;;;;;;4938105;28;94290;-32
2022/08/20 08:10:44;;;;;;;4.22;2.10;;;20.00;99.90;;;;;;4937750;28;93968;-33
2022/08/20 08:13:13;;;;;;;5.78;2.10;;;20.20;99.90;;;;;;4927383;28;95623;-31
2022/08/20 08:15:39;;;;;;;;;;;20.20;99.90;;;;;;4939391;28;95423;-34
2022/08/20 08:18:14;;;;;;;4.57;1.90;;;20.10;99.90;;;;;;4939957;28;92157;-32
2022/08/20 08:20:43;;;;;;;10.68;2.70;;;20.00;99.90;;;;;;4937511;28;93551;-30
2022/08/20 08:23:13;;;;;;;4.75;2.08;;;20.00;99.90;;;;;;4942170;28;93992;-33
2022/08/20 08:25:44;;;;;;;2.53;1.77;;;20.30;99.90;;;;;;4939417;28;94597;-34
2022/08/20 08:28:10;;;;;;;3.58;1.75;;;20.50;99.90;;;;;;4937473;28;93791;-32
2022/08/20 08:30:39;;;;;;;7.97;2.60;;;20.60;99.90;;;;;;4938707;28;92114;-35
2022/08/20 08:35:49;;;;;;;5.80;3.08;;;20.70;99.90;;;;;;4939448;28;94546;-31
2022/08/20 08:38:15;;;;;;;2.20;2.03;;;20.70;99.90;;;;;;4936989;28;93706;-32
2022/08/20 08:40:41;;;;;;;4.30;2.17;;;20.70;99.90;;;;;;4937814;28;93340;-31
2022/08/20 08:43:10;;;;;;;6.80;2.33;;;20.70;99.90;;;;;;4937173;28;94474;-33
2022/08/20 08:45:42;;;;;;;2.28;2.08;;;20.70;99.90;;;;;;4937976;28;94770;-31
2022/08/20 08:48:12;;;;;;;6.05;2.33;;;20.80;99.90;;;;;;4936617;28;93276;-33
2022/08/20 08:50:41;;;;;;;3.50;2.08;;;20.90;99.90;;;;;;4937405;28;92589;-32
2022/08/20 08:53:08;;;;;;;4.45;2.35;;;21.00;99.90;;;;;;4940777;28;94492;-33
2022/08/20 08:55:34;;;;;;;7.23;1.80;;;21.00;99.90;;;;;;4937322;28;94709;-31
2022/08/20 08:58:01;;;;;;;4.90;2.30;;;20.90;99.90;;;;;;4937453;28;92100;-33
2022/08/20 09:00:27;;;;;;;5.50;2.67;;;20.80;99.90;;;;;;4936501;28;94065;-32
2022/08/20 09:03:02;;;;;;;1.85;1.73;;;20.80;99.90;;;;;;4935818;28;95894;-31
2022/08/20 09:05:43;;;;;;;2.67;2.10;;;20.80;99.90;;;;;;4937547;28;95402;-32
2022/08/20 09:08:11;;;;;;;4.97;1.67;;;20.90;99.90;;;;;;4937853;28;93003;-31
2022/08/20 09:10:37;;;;;;;;;;;21.20;99.90;;;;;;4937792;28;93413;-32
2022/08/20 09:13:04;;;;;;;10.07;2.30;;;21.30;99.90;;;;;;4924530;28;95382;-31
2022/08/20 09:15:30;;;;;;;6.20;1.65;;;21.60;99.90;;;;;;4937480;28;94395;-31
2022/08/20 09:17:56;;;;;;;3.83;1.20;;;21.70;99.90;;;;;;4949628;28;94127;-31
2022/08/20 09:20:21;;;;;;;3.38;1.60;;;21.80;99.90;;;;;;4940380;28;93598;-31
2022/08/20 09:22:47;;;;;;;5.80;1.33;;;22.00;99.90;;;;;;4940249;28;95703;-34
2022/08/20 09:25:13;;;;;;;2.95;1.92;;;22.20;99.90;;;;;;4939452;28;94082;-34
2022/08/20 09:27:38;;;;;;;3.55;1.55;;;22.30;99.90;;;;;;4942610;28;93788;-34
2022/08/20 09:30:05;;;;;;;3.83;1.90;;;22.40;99.90;;;;;;4940870;28;93229;-33
2022/08/20 09:32:30;;;;;;;10.93;1.55;;;22.60;99.90;;;;;;4939359;28;95074;-34
2022/08/20 09:34:57;;;;;;;4.38;1.98;;;22.60;99.90;;;;;;4939858;28;93384;-33
2022/08/20 09:37:26;;;;;;;3.90;1.48;;;22.60;99.90;;;;;;4939958;28;92713;-31
2022/08/20 09:39:52;;;;;;;4.10;1.42;;;22.60;99.90;;;;;;4939785;28;93712;-31
2022/08/20 09:42:24;;;;;;;3.15;1.92;;;22.60;99.90;;;;;;4939461;28;94605;-33
2022/08/20 09:44:50;;;;;;;1.88;1.25;;;22.60;99.90;;;;;;4939332;28;94576;-31
2022/08/20 09:47:16;;;;;;;3.33;1.60;;;22.80;99.90;;;;;;4940084;28;93150;-32
2022/08/20 09:49:43;;;;;;;3.17;1.33;;;22.90;99.90;;;;;;4939787;28;94222;-33
2022/08/20 09:52:18;;;;;;;3.33;1.27;;;23.00;99.90;;;;;;4938904;28;95729;-31
2022/08/20 09:54:44;;;;;;;2.60;1.20;;;23.00;99.90;;;;;;4939475;28;94089;-34
2022/08/20 09:57:11;;;;;;;2.60;1.52;;;23.10;99.90;;;;;;4939239;28;95110;-31
2022/08/20 09:59:37;;;;;;;14.00;2.65;;;23.10;99.90;;;;;;4939343;28;93891;-33
2022/08/20 10:02:03;;;;;;;4.15;1.30;;;23.20;99.90;;;;;;4939316;28;94860;-34
2022/08/20 10:04:28;;;;;;;3.75;1.52;;;23.30;99.90;;;;;;4938288;28;95080;-32
2022/08/20 10:06:55;;;;;;;2.20;1.13;;;23.40;99.90;;;;;;4943872;28;92672;-31
2022/08/20 10:09:21;;;;;;;1.95;0.68;;;23.50;99.90;;;;;;4940552;28;92359;-33
2022/08/20 10:11:46;;;;;;;3.03;1.25;;;23.50;99.90;;;;;;4923350;28;95969;-33
2022/08/20 10:14:12;;;;;;;7.20;1.73;;;23.60;99.90;;;;;;4935541;28;94322;-35
2022/08/20 10:16:37;;;;;;;5.22;1.33;;;23.50;99.00;;;;;;4939133;28;94453;-33
2022/08/20 10:19:04;;;;;;;3.22;1.55;;;23.60;99.90;;;;;;4939547;28;92355;-34
2022/08/20 10:21:31;;;;;;;2.75;1.30;;;23.80;99.90;;;;;;4938901;28;96450;-36
2022/08/20 10:23:57;;;;;;;4.80;1.80;;;23.90;99.90;;;;;;4938796;28;94552;-31
2022/08/20 10:26:23;;;;;;;4.93;2.17;;;23.90;99.90;;;;;;4938564;28;92480;-34
2022/08/20 10:28:48;;;;;;;2.17;0.98;;;23.80;97.10;;;;;;4939862;28;93143;-32
2022/08/20 10:31:14;;;;;;;3.50;1.83;;;23.80;99.90;;;;;;4938151;28;94458;-32
2022/08/20 10:33:40;;;;;;;6.55;2.13;;;23.80;99.90;;;;;;4939558;28;94540;-32
2022/08/20 10:36:08;;;;;;;3.92;1.65;;;23.90;99.90;;;;;;4938397;28;93143;-32
2022/08/20 10:38:34;;;;;;;2.63;1.10;;;23.80;99.90;;;;;;4938240;28;95067;-35
2022/08/20 10:41:00;;;;;;;1.70;1.02;;;23.70;99.90;;;;;;4938514;28;95838;-33
2022/08/20 10:43:25;;;;;;;3.90;1.45;;;23.80;99.90;;;;;;4937694;28;94990;-30
2022/08/20 10:45:51;;;;;;;3.65;1.05;;;23.90;99.90;;;;;;4939737;28;94933;-33
2022/08/20 10:48:16;;;;;;;2.30;1.30;;;24.00;99.90;;;;;;4938163;28;93646;-32
2022/08/20 10:50:42;;;;;;;2.58;1.30;;;24.00;99.90;;;;;;4938102;28;94912;-35
2022/08/20 10:53:07;;;;;;;4.18;1.70;;;24.10;99.90;;;;;;4938199;28;95529;-33
2022/08/20 10:55:33;;;;;;;6.38;1.65;;;24.10;99.90;;;;;;4937794;28;94655;-35
2022/08/20 10:57:59;;;;;;;3.33;1.58;;;23.80;99.90;;;;;;4938734;28;93470;-32
2022/08/20 11:00:24;;;;;;;5.28;1.70;;;23.80;99.90;;;;;;4937317;28;94606;-34
2022/08/20 11:02:50;;;;;;;9.05;2.10;;;23.70;99.00;;;;;;4938149;28;94344;-35
2022/08/20 11:05:16;;;;;;;2.33;1.88;;;23.50;99.90;;;;;;4937506;28;94920;-33
2022/08/20 11:07:43;;;;;;;3.40;1.42;;;23.30;99.90;;;;;;4938140;28;92269;-33
2022/08/20 11:10:09;;;;;;;3.65;1.05;;;23.10;99.90;;;;;;4938010;28;93844;-34
2022/08/20 11:12:35;;;;;;;4.75;2.03;;;23.10;99.90;;;;;;4923408;28;93970;-33
2022/08/20 11:15:01;;;;;;;7.95;1.80;;;23.20;99.90;;;;;;4938723;28;94377;-33
2022/08/20 11:17:30;;;;;;;3.17;1.67;;;23.40;99.90;;;;;;4937177;28;93706;-33
2022/08/20 11:19:57;;;;;;;3.50;1.40;;;23.40;99.90;;;;;;4937869;28;94586;-33
2022/08/20 11:22:25;;;;;;;3.77;1.47;;;23.50;99.90;;;;;;4937448;28;95722;-31
2022/08/20 11:24:51;;;;;;;4.57;1.80;;;23.70;99.90;;;;;;4937952;28;93610;-31
2022/08/20 11:27:29;;;;;;;5.20;1.63;;;23.80;99.30;;;;;;4939734;28;94617;-32
2022/08/20 11:29:55;;;;;;;2.78;1.45;;;23.80;99.90;;;;;;4937454;28;98313;-35
2022/08/20 11:32:21;;;;;;;1.48;1.23;;;23.80;99.90;;;;;;4936316;28;95512;-32
2022/08/20 11:34:47;;;;;;;5.57;1.60;;;23.80;99.30;;;;;;4926138;28;94424;-34
2022/08/20 11:37:14;;;;;;;4.53;1.45;;;23.70;99.90;;;;;;4924967;28;93699;-32
2022/08/20 11:39:40;;;;;;;3.33;1.50;;;23.80;99.90;;;;;;4936414;28;94272;-33
2022/08/20 11:42:05;;;;;;;4.03;1.65;;;23.90;99.90;;;;;;4931661;28;95058;-34
2022/08/20 11:44:31;;;;;;;3.50;1.95;;;23.90;99.90;;;;;;4930819;28;94540;-34
2022/08/20 11:47:02;;;;;;;3.72;1.38;;;23.70;99.90;;;;;;4930720;28;92274;-34
2022/08/20 11:49:29;;;;;;;3.33;1.40;;;23.50;99.90;;;;;;4919045;28;94419;-33
2022/08/20 11:51:54;;;;;;;2.95;1.27;;;23.30;99.90;;;;;;4923358;28;94337;-34
2022/08/20 11:54:20;;;;;;;4.00;1.98;;;23.10;99.90;;;;;;4933640;28;95274;-32
2022/08/20 11:56:45;;;;;;;2.45;1.50;;;23.00;99.90;;;;;;4938718;28;94215;-33
2022/08/20 11:59:11;;;;;;;0.98;0.88;;;23.00;99.90;;;;;;4935892;28;94993;-35
2022/08/20 12:01:37;;;;;;;1.50;1.40;;;22.90;99.90;;;;;;4936516;28;94473;-33
2022/08/20 12:04:03;;;;;;;7.72;2.08;;;22.90;99.90;;;;;;4948896;28;92110;-32
2022/08/20 12:06:28;;;;;;;4.47;1.73;;;22.70;99.90;;;;;;4951390;28;92242;-32
2022/08/20 12:08:54;;;;;;;3.33;1.20;;;22.60;99.90;;;;;;4947659;28;94572;-35
2022/08/20 12:11:19;;;;;;;4.30;1.90;;;22.60;99.90;;;;;;4930887;28;95259;-34
2022/08/20 12:13:45;;;;;;;2.22;1.50;;;22.70;99.90;;;;;;4930394;28;93744;-33
2022/08/20 12:16:10;;;;;;;2.38;1.10;;;22.70;99.90;;;;;;4936611;28;92818;-32
2022/08/20 12:18:36;;;;;;;1.63;1.50;;;22.70;99.90;;;;;;4937455;28;96719;-32
2022/08/20 12:21:02;;;;;;;5.18;1.70;;;22.50;99.90;;;;;;4936962;28;97096;-31
2022/08/20 12:23:27;;;;;;;2.55;1.60;;;22.40;99.90;;;;;;4937476;28;93504;-32
2022/08/20 12:25:53;;;;;;;8.57;1.55;;;22.40;99.90;;;;;;4969964;23;93419;-35
2022/08/20 12:28:19;;;;;;;4.55;2.08;;;22.40;99.90;;;;;;4931148;28;95883;-31
2022/08/20 12:30:44;;;;;;;3.15;1.88;;;22.50;99.90;;;;;;4934083;28;94467;-32
2022/08/20 12:33:10;;;;;;;2.58;1.40;;;22.70;99.90;;;;;;4929188;28;93068;-35
2022/08/20 12:35:36;;;;;;;5.38;1.95;;;22.90;99.90;;;;;;4932772;28;93630;-35
2022/08/20 12:38:05;;;;;;;2.83;2.13;;;23.20;99.90;;;;;;4930039;28;94819;-31
2022/08/20 12:40:31;;;;;;;3.80;1.83;;;23.20;99.90;;;;;;4921819;28;94457;-33
2022/08/20 12:42:57;;;;;;;5.65;2.05;;;23.20;99.90;;;;;;4922601;28;93805;-33
2022/08/20 12:45:22;;;;;;;3.67;2.65;;;23.10;99.90;;;;;;4925675;28;93546;-34
2022/08/20 12:47:48;;;;;;;5.78;2.70;;;23.00;99.90;;;;;;4934803;28;94910;-32
2022/08/20 12:50:18;;;;;;;4.57;2.45;;;23.00;99.90;;;;;;4934080;28;93944;-34
2022/08/20 12:52:44;;;;;;;3.60;2.17;;;22.90;99.90;;;;;;4941023;28;92850;-32